Time;durP1;ratioP1;P1;durP2;ratioP2;P2;SDS_P1;SDS_P2;PMS_P1;PMS_P2;Temp;Humidity;BMP_temperature;BMP_pressure;BME280_temperature;BME280_humidity;BME280_pressure;Samples;Min_cycle;Max_cycle;Signal;HPM_P1;HPM_P2
2022/09/29 00:02:33;;;;;;;6.53;3.00;;;;;;;;;;4962564;28;20055;-68
2022/09/29 00:05:04;;;;;;;5.93;2.53;;;;;;;;;;5007767;28;20151;-67
2022/09/29 00:07:35;;;;;;;6.50;2.97;;;;;;;;;;5032491;28;20464;-69
2022/09/29 00:10:05;;;;;;;7.22;3.05;;;;;;;;;;5032574;28;20548;-69
2022/09/29 00:12:37;;;;;;;6.63;3.03;;;;;;;;;;5032330;28;20090;-69
2022/09/29 00:15:08;;;;;;;6.57;3.42;;;;;;;;;;5039080;28;20522;-69
2022/09/29 00:17:39;;;;;;;7.25;2.53;;;;;;;;;;5072298;28;20202;-69
2022/09/29 00:20:29;;;;;;;5.72;2.95;;;;;;;;;;5031963;28;20050;-69
2022/09/29 00:22:59;;;;;;;5.47;2.88;;;;;;;;;;4983087;28;20064;-69
2022/09/29 00:25:29;;;;;;;6.38;2.78;;;;;;;;;;5032220;28;20097;-69
2022/09/29 00:28:00;;;;;;;10.68;3.58;;;;;;;;;;5032326;28;20072;-69
2022/09/29 00:30:30;;;;;;;6.88;2.90;;;;;;;;;;4998978;28;20528;-69
2022/09/29 00:33:00;;;;;;;6.97;3.75;;;;;;;;;;5032124;28;20053;-68
2022/09/29 00:35:30;;;;;;;8.30;3.40;;;;;;;;;;5032236;28;20417;-69
2022/09/29 00:38:00;;;;;;;9.80;3.22;;;;;;;;;;4983183;28;20410;-69
2022/09/29 00:40:30;;;;;;;5.80;3.22;;;;;;;;;;4999144;28;20385;-69
2022/09/29 00:43:00;;;;;;;8.00;3.35;;;;;;;;;;4999127;28;20481;-69
2022/09/29 00:45:31;;;;;;;7.13;3.25;;;;;;;;;;5015560;28;20441;-69
2022/09/29 00:48:14;;;;;;;9.05;3.28;;;;;;;;;;5031803;28;20467;-68
2022/09/29 00:50:51;;;;;;;8.02;3.35;;;;;;;;;;5031117;28;20049;-69
2022/09/29 00:53:23;;;;;;;8.25;3.20;;;;;;;;;;5011652;28;20054;-69
2022/09/29 00:56:10;;;;;;;7.75;3.10;;;;;;;;;;5011889;28;20194;-68
2022/09/29 00:58:53;;;;;;;6.60;2.45;;;;;;;;;;5036717;28;20069;-69
2022/09/29 01:01:26;;;;;;;4.47;2.33;;;;;;;;;;5015045;28;20532;-69
2022/09/29 01:04:01;;;;;;;7.20;3.00;;;;;;;;;;5031522;28;20496;-68
2022/09/29 01:06:39;;;;;;;8.02;2.80;;;;;;;;;;4998482;28;20048;-68
2022/09/29 01:09:21;;;;;;;6.35;2.58;;;;;;;;;;5031443;28;20567;-69
2022/09/29 01:11:53;;;;;;;6.75;2.90;;;;;;;;;;5031487;28;20049;-68
2022/09/29 01:14:26;;;;;;;11.00;2.40;;;;;;;;;;5030159;28;20049;-68
2022/09/29 01:16:59;;;;;;;5.10;2.25;;;;;;;;;;4998779;28;20056;-68
2022/09/29 01:19:35;;;;;;;4.50;2.22;;;;;;;;;;5031079;28;20056;-68
2022/09/29 01:22:42;;;;;;;6.30;2.47;;;;;;;;;;5031227;28;20049;-69
2022/09/29 01:25:42;;;;;;;5.15;2.53;;;;;;;;;;4998173;28;20493;-69
2022/09/29 01:28:18;;;;;;;6.45;1.90;;;;;;;;;;5031059;28;20045;-69
2022/09/29 01:31:12;;;;;;;4.50;2.00;;;;;;;;;;5049058;28;20049;-68
2022/09/29 01:33:54;;;;;;;4.28;2.05;;;;;;;;;;5073236;28;20040;-68
2022/09/29 01:36:48;;;;;;;4.43;1.67;;;;;;;;;;5073230;28;20040;-69
2022/09/29 01:39:48;;;;;;;5.10;1.85;;;;;;;;;;5073137;28;20395;-69
2022/09/29 01:42:26;;;;;;;6.07;1.58;;;;;;;;;;4978280;28;20502;-68
2022/09/29 01:45:15;;;;;;;4.72;1.70;;;;;;;;;;4991378;28;20061;-68
2022/09/29 01:47:55;;;;;;;4.00;1.83;;;;;;;;;;4991464;28;20445;-68
2022/09/29 01:50:33;;;;;;;5.30;1.85;;;;;;;;;;4991448;28;20065;-68
2022/09/29 01:53:14;;;;;;;4.28;1.42;;;;;;;;;;4991218;28;20062;-68
2022/09/29 01:55:52;;;;;;;4.50;1.63;;;;;;;;;;4991408;28;20061;-68
2022/09/29 01:58:32;;;;;;;5.07;1.60;;;;;;;;;;4990935;28;20066;-68
2022/09/29 02:01:07;;;;;;;3.22;1.35;;;;;;;;;;4990911;28;20057;-69
2022/09/29 02:03:43;;;;;;;5.68;1.77;;;;;;;;;;4942822;28;20054;-69
2022/09/29 02:06:24;;;;;;;2.50;1.40;;;;;;;;;;4974606;28;20532;-68
2022/09/29 02:08:58;;;;;;;2.67;1.30;;;;;;;;;;4943054;28;20422;-67
2022/09/29 02:11:31;;;;;;;3.03;1.20;;;;;;;;;;4960027;28;20058;-68
2022/09/29 02:14:12;;;;;;;2.42;1.20;;;;;;;;;;4943084;28;20406;-68
2022/09/29 02:16:56;;;;;;;2.53;1.17;;;;;;;;;;4990891;28;20051;-68
2022/09/29 02:19:30;;;;;;;3.42;1.30;;;;;;;;;;5027978;28;20052;-68
2022/09/29 02:22:00;;;;;;;3.47;1.40;;;;;;;;;;5054103;28;20048;-69
2022/09/29 02:24:32;;;;;;;3.65;1.55;;;;;;;;;;5072495;28;20420;-68
2022/09/29 02:27:04;;;;;;;5.93;2.42;;;;;;;;;;5055006;28;20040;-68
2022/09/29 02:29:35;;;;;;;3.72;1.92;;;;;;;;;;5055084;28;20510;-67
2022/09/29 02:32:08;;;;;;;5.50;1.90;;;;;;;;;;5072199;28;20040;-68
2022/09/29 02:34:44;;;;;;;3.42;1.40;;;;;;;;;;5010283;28;20058;-67
2022/09/29 02:37:45;;;;;;;3.85;1.30;;;;;;;;;;5010292;28;20081;-67
2022/09/29 02:40:50;;;;;;;2.75;1.30;;;;;;;;;;5010301;28;20565;-68
2022/09/29 02:44:07;;;;;;;3.00;1.20;;;;;;;;;;5010309;28;20057;-68
2022/09/29 02:46:40;;;;;;;2.45;1.13;;;;;;;;;;5010413;28;20065;-68
2022/09/29 02:49:23;;;;;;;4.10;2.28;;;;;;;;;;5009997;28;20057;-68
2022/09/29 02:52:18;;;;;;;5.18;1.75;;;;;;;;;;5010162;28;20050;-68
2022/09/29 02:55:12;;;;;;;3.15;1.42;;;;;;;;;;4976590;28;20053;-68
2022/09/29 02:57:43;;;;;;;4.70;1.63;;;;;;;;;;5010065;28;20465;-68
2022/09/29 03:00:16;;;;;;;8.13;1.90;;;;;;;;;;5010019;28;20062;-68
2022/09/29 03:02:46;;;;;;;3.75;1.60;;;;;;;;;;5010314;28;20042;-67
2022/09/29 03:05:18;;;;;;;3.20;1.40;;;;;;;;;;4961444;28;20054;-67
2022/09/29 03:07:49;;;;;;;2.95;1.70;;;;;;;;;;4994088;28;20053;-67
2022/09/29 03:10:20;;;;;;;5.57;1.85;;;;;;;;;;5010154;28;20048;-68
2022/09/29 03:12:53;;;;;;;3.33;1.60;;;;;;;;;;5009937;28;20056;-68
2022/09/29 03:15:23;;;;;;;3.83;1.65;;;;;;;;;;5040618;28;20052;-68
2022/09/29 03:17:57;;;;;;;3.55;1.33;;;;;;;;;;5056842;28;20053;-67
2022/09/29 03:20:27;;;;;;;4.68;1.63;;;;;;;;;;5075939;28;20048;-68
2022/09/29 03:22:59;;;;;;;3.17;1.48;;;;;;;;;;5075540;28;20064;-68
2022/09/29 03:25:30;;;;;;;3.15;1.80;;;;;;;;;;5033169;28;20436;-69
2022/09/29 03:28:01;;;;;;;4.68;1.60;;;;;;;;;;5033483;28;20053;-70
2022/09/29 03:30:31;;;;;;;5.80;1.67;;;;;;;;;;5000420;28;20064;-70
2022/09/29 03:33:01;;;;;;;2.90;1.67;;;;;;;;;;5033256;28;20050;-70
2022/09/29 03:35:31;;;;;;;8.10;1.70;;;;;;;;;;4984229;28;20053;-69
2022/09/29 03:38:00;;;;;;;4.88;1.60;;;;;;;;;;5033211;28;20409;-70
2022/09/29 03:40:30;;;;;;;4.22;1.33;;;;;;;;;;5033289;28;20056;-70
2022/09/29 03:43:01;;;;;;;2.70;1.33;;;;;;;;;;5032684;28;20136;-71
2022/09/29 03:45:31;;;;;;;3.42;1.58;;;;;;;;;;5033072;28;20417;-70
2022/09/29 03:48:02;;;;;;;5.10;1.63;;;;;;;;;;5032933;28;20504;-70
2022/09/29 03:50:32;;;;;;;2.88;1.33;;;;;;;;;;5012635;28;20053;-69
2022/09/29 03:53:02;;;;;;;3.75;1.58;;;;;;;;;;5013091;28;20563;-69
2022/09/29 03:55:32;;;;;;;4.32;1.42;;;;;;;;;;4997275;28;20501;-68
2022/09/29 03:58:02;;;;;;;4.85;1.45;;;;;;;;;;4996250;28;20057;-66
2022/09/29 04:00:32;;;;;;;6.50;1.63;;;;;;;;;;5012831;28;20177;-67
2022/09/29 04:03:02;;;;;;;6.30;1.90;;;;;;;;;;5022002;28;20068;-68
2022/09/29 04:05:37;;;;;;;3.75;1.48;;;;;;;;;;4942067;28;20057;-67
2022/09/29 04:08:08;;;;;;;3.03;1.33;;;;;;;;;;4925607;28;20054;-67
2022/09/29 04:10:39;;;;;;;5.32;1.42;;;;;;;;;;4973841;28;20070;-67
2022/09/29 04:13:09;;;;;;;2.92;1.52;;;;;;;;;;4973421;28;20055;-67
2022/09/29 04:15:42;;;;;;;3.25;1.40;;;;;;;;;;4973520;28;20051;-67
2022/09/29 04:18:12;;;;;;;3.53;1.60;;;;;;;;;;4973189;28;20054;-68
2022/09/29 04:20:43;;;;;;;4.10;1.65;;;;;;;;;;4973396;28;20067;-68
2022/09/29 04:23:13;;;;;;;3.25;1.50;;;;;;;;;;4972721;28;20533;-69
2022/09/29 04:25:46;;;;;;;4.63;2.25;;;;;;;;;;4972607;28;20062;-69
2022/09/29 04:28:17;;;;;;;6.10;1.90;;;;;;;;;;4973181;28;20058;-69
2022/09/29 04:30:47;;;;;;;7.68;1.40;;;;;;;;;;4941332;28;20066;-69
2022/09/29 04:33:17;;;;;;;4.20;1.50;;;;;;;;;;4973159;28;20054;-70
2022/09/29 04:35:47;;;;;;;4.43;1.73;;;;;;;;;;4973268;28;20066;-69
2022/09/29 04:38:17;;;;;;;4.28;1.30;;;;;;;;;;4959508;28;20054;-69
2022/09/29 04:40:48;;;;;;;3.10;1.30;;;;;;;;;;4992609;28;20182;-69
2022/09/29 04:43:19;;;;;;;6.93;1.35;;;;;;;;;;4992492;28;20081;-69
2022/09/29 04:45:49;;;;;;;5.68;1.55;;;;;;;;;;4992330;28;20050;-69
2022/09/29 04:48:19;;;;;;;1.80;1.10;;;;;;;;;;4992478;28;20490;-69
2022/09/29 04:50:51;;;;;;;4.80;1.13;;;;;;;;;;4992464;28;20073;-69
2022/09/29 04:53:22;;;;;;;4.88;1.25;;;;;;;;;;5001971;28;20046;-70
2022/09/29 04:55:53;;;;;;;3.42;1.30;;;;;;;;;;4993178;28;20056;-71
2022/09/29 04:58:24;;;;;;;3.60;1.27;;;;;;;;;;5007855;28;20066;-71
2022/09/29 05:00:54;;;;;;;3.33;1.45;;;;;;;;;;5002210;28;20053;-71
2022/09/29 05:03:25;;;;;;;3.65;1.15;;;;;;;;;;5011723;28;20057;-70
2022/09/29 05:05:55;;;;;;;4.70;1.10;;;;;;;;;;5011894;28;20453;-70
2022/09/29 05:08:25;;;;;;;3.20;1.13;;;;;;;;;;5011728;28;20046;-70
2022/09/29 05:10:54;;;;;;;3.30;1.17;;;;;;;;;;4995795;28;20069;-70
2022/09/29 05:13:24;;;;;;;3.88;1.02;;;;;;;;;;5011701;28;20142;-71
2022/09/29 05:15:58;;;;;;;2.30;1.25;;;;;;;;;;5011693;28;20061;-70
2022/09/29 05:18:28;;;;;;;2.38;0.90;;;;;;;;;;5011279;28;20049;-70
2022/09/29 05:21:09;;;;;;;3.70;1.15;;;;;;;;;;5011616;28;20054;-70
2022/09/29 05:23:57;;;;;;;2.45;0.80;;;;;;;;;;5011353;28;20058;-70
2022/09/29 05:26:27;;;;;;;3.97;1.00;;;;;;;;;;4995505;28;20054;-70
2022/09/29 05:28:58;;;;;;;2.03;1.10;;;;;;;;;;5011209;28;20081;-70
2022/09/29 05:31:28;;;;;;;2.33;0.95;;;;;;;;;;5011333;28;20444;-70
2022/09/29 05:33:58;;;;;;;2.80;1.23;;;;;;;;;;5011180;28;20057;-70
2022/09/29 05:36:27;;;;;;;4.43;0.90;;;;;;;;;;5004230;28;20045;-70
2022/09/29 05:38:58;;;;;;;1.80;0.90;;;;;;;;;;5011164;28;20130;-70
2022/09/29 05:41:27;;;;;;;2.50;0.98;;;;;;;;;;5011225;28;20069;-70
2022/09/29 05:44:00;;;;;;;3.72;1.10;;;;;;;;;;5010947;28;20101;-70
2022/09/29 05:46:30;;;;;;;3.05;0.90;;;;;;;;;;4995139;28;20050;-70
2022/09/29 05:49:00;;;;;;;1.63;0.85;;;;;;;;;;4978357;28;20054;-70
2022/09/29 05:51:30;;;;;;;4.43;1.20;;;;;;;;;;5010999;28;20049;-69
2022/09/29 05:54:01;;;;;;;2.60;0.90;;;;;;;;;;4994848;28;20062;-70
2022/09/29 05:56:31;;;;;;;2.22;0.80;;;;;;;;;;5024374;28;20069;-69
2022/09/29 05:59:01;;;;;;;2.83;0.70;;;;;;;;;;4997493;28;20060;-69
2022/09/29 06:01:32;;;;;;;3.08;0.75;;;;;;;;;;5030610;28;20497;-69
2022/09/29 06:04:03;;;;;;;2.25;1.00;;;;;;;;;;5030482;28;20049;-69
2022/09/29 06:06:35;;;;;;;2.08;0.80;;;;;;;;;;5030186;28;20056;-68
2022/09/29 06:09:06;;;;;;;1.50;0.90;;;;;;;;;;4997346;28;20057;-68
2022/09/29 06:11:36;;;;;;;2.00;0.70;;;;;;;;;;4997684;28;20072;-68
2022/09/29 06:14:06;;;;;;;1.65;0.70;;;;;;;;;;5051492;28;20064;-67
2022/09/29 06:16:36;;;;;;;1.45;0.50;;;;;;;;;;5037299;28;20053;-68
2022/09/29 06:19:06;;;;;;;4.20;0.80;;;;;;;;;;5055150;28;20037;-68
2022/09/29 06:21:36;;;;;;;4.05;0.90;;;;;;;;;;5070420;28;20424;-69
2022/09/29 06:24:06;;;;;;;3.17;0.80;;;;;;;;;;5072453;28;20483;-68
2022/09/29 06:26:36;;;;;;;1.45;0.68;;;;;;;;;;5037027;28;20061;-69
2022/09/29 06:29:06;;;;;;;1.70;0.80;;;;;;;;;;5004985;28;20407;-69
2022/09/29 06:31:36;;;;;;;1.38;0.70;;;;;;;;;;5072241;28;20047;-70
2022/09/29 06:34:06;;;;;;;0.98;0.65;;;;;;;;;;5036849;28;20063;-70
2022/09/29 06:39:32;;;;;;;2.55;0.90;;;;;;;;;;5029564;28;20085;-69
2022/09/29 06:42:03;;;;;;;3.50;0.82;;;;;;;;;;5071877;28;20067;-69
2022/09/29 06:44:33;;;;;;;2.15;0.60;;;;;;;;;;5021835;28;20507;-69
2022/09/29 06:47:03;;;;;;;2.72;0.50;;;;;;;;;;5072616;28;20040;-68
2022/09/29 06:49:33;;;;;;;1.58;0.50;;;;;;;;;;5014043;28;20493;-68
2022/09/29 06:52:03;;;;;;;1.85;0.60;;;;;;;;;;5014102;28;20053;-68
2022/09/29 06:54:48;;;;;;;2.65;0.60;;;;;;;;;;5000152;28;20061;-68
2022/09/29 06:57:20;;;;;;;3.05;0.70;;;;;;;;;;5014133;28;20552;-67
2022/09/29 06:59:50;;;;;;;0.82;0.47;;;;;;;;;;5013893;28;20054;-68
2022/09/29 07:02:20;;;;;;;1.50;0.63;;;;;;;;;;4997693;28;20062;-67
2022/09/29 07:04:50;;;;;;;3.90;0.60;;;;;;;;;;4981442;28;20580;-67
2022/09/29 07:07:20;;;;;;;1.60;0.55;;;;;;;;;;4997359;28;20058;-67
2022/09/29 07:09:50;;;;;;;1.30;0.57;;;;;;;;;;5013871;28;20049;-67
2022/09/29 07:12:20;;;;;;;2.92;0.70;;;;;;;;;;4997588;28;20058;-67
2022/09/29 07:14:50;;;;;;;1.05;0.50;;;;;;;;;;4977479;28;20517;-67
2022/09/29 07:17:20;;;;;;;2.30;0.65;;;;;;;;;;4994297;28;20069;-68
2022/09/29 07:19:50;;;;;;;1.92;0.55;;;;;;;;;;4961560;28;20054;-67
2022/09/29 07:22:20;;;;;;;1.20;0.52;;;;;;;;;;4994250;28;20058;-67
2022/09/29 07:24:52;;;;;;;5.30;0.80;;;;;;;;;;4994073;28;20046;-67
2022/09/29 07:27:23;;;;;;;2.60;0.60;;;;;;;;;;4945817;28;20047;-67
2022/09/29 07:29:53;;;;;;;2.55;0.50;;;;;;;;;;4954885;29;20047;-67
2022/09/29 07:32:33;;;;;;;2.20;0.60;;;;;;;;;;4955078;29;20557;-68
2022/09/29 07:35:04;;;;;;;3.13;0.65;;;;;;;;;;4919462;29;20056;-67
2022/09/29 07:37:35;;;;;;;2.60;0.50;;;;;;;;;;4935730;29;20060;-69
2022/09/29 07:40:05;;;;;;;1.67;0.60;;;;;;;;;;4954700;28;20063;-70
2022/09/29 07:42:35;;;;;;;1.48;0.65;;;;;;;;;;4955010;28;20066;-69
2022/09/29 07:45:07;;;;;;;1.85;0.88;;;;;;;;;;4922831;29;20062;-70
2022/09/29 07:47:37;;;;;;;2.70;0.60;;;;;;;;;;4954891;28;20051;-70
2022/09/29 07:50:07;;;;;;;1.67;0.50;;;;;;;;;;4954926;28;20044;-69
2022/09/29 07:52:38;;;;;;;1.67;0.50;;;;;;;;;;4917884;28;20586;-70
2022/09/29 07:55:09;;;;;;;0.98;0.40;;;;;;;;;;4942693;28;20058;-70
2022/09/29 07:57:39;;;;;;;2.33;0.55;;;;;;;;;;4973892;28;20491;-70
2022/09/29 08:00:10;;;;;;;3.92;0.70;;;;;;;;;;4973488;28;20059;-70
2022/09/29 08:02:40;;;;;;;1.13;0.50;;;;;;;;;;4942544;28;20070;-70
2022/09/29 08:05:10;;;;;;;2.38;0.52;;;;;;;;;;4975381;28;20552;-69
2022/09/29 08:07:40;;;;;;;2.67;0.77;;;;;;;;;;5043789;28;20060;-69
2022/09/29 08:10:10;;;;;;;1.40;0.60;;;;;;;;;;5052352;28;20055;-68
2022/09/29 08:12:45;;;;;;;1.48;0.50;;;;;;;;;;4998280;28;20053;-68
2022/09/29 08:15:16;;;;;;;3.22;0.50;;;;;;;;;;5072551;28;20052;-68
2022/09/29 08:17:47;;;;;;;2.00;0.50;;;;;;;;;;5056063;28;20057;-68
2022/09/29 08:20:17;;;;;;;1.98;0.52;;;;;;;;;;5074342;28;20051;-68
2022/09/29 08:22:47;;;;;;;5.30;1.30;;;;;;;;;;5057336;28;20044;-68
2022/09/29 08:25:17;;;;;;;1.95;0.60;;;;;;;;;;5055733;28;20056;-68
2022/09/29 08:27:48;;;;;;;4.68;0.80;;;;;;;;;;5074527;28;20052;-68
2022/09/29 08:30:24;;;;;;;3.03;0.63;;;;;;;;;;5074345;28;20051;-68
2022/09/29 08:32:54;;;;;;;1.95;0.68;;;;;;;;;;5055947;28;20061;-68
2022/09/29 08:35:24;;;;;;;1.10;0.38;;;;;;;;;;5074413;28;20052;-68
2022/09/29 08:37:56;;;;;;;2.47;0.70;;;;;;;;;;5039061;28;20411;-68
2022/09/29 08:40:30;;;;;;;;;;;;;;;;;;5074611;28;20420;-68
2022/09/29 08:43:26;;;;;;;0.90;0.45;;;;;;;;;;5074299;28;19920;-68
2022/09/29 08:46:12;;;;;;;2.90;0.77;;;;;;;;;;5073989;28;20067;-68
2022/09/29 08:48:49;;;;;;;1.98;0.82;;;;;;;;;;5074093;28;20048;-68
2022/09/29 08:51:54;;;;;;;2.13;0.70;;;;;;;;;;5074338;28;20045;-67
2022/09/29 08:54:39;;;;;;;1.75;0.50;;;;;;;;;;5031819;28;20105;-67
2022/09/29 08:57:20;;;;;;;3.17;0.50;;;;;;;;;;5031552;28;20052;-68
2022/09/29 08:59:56;;;;;;;0.80;0.40;;;;;;;;;;5031398;28;20053;-69
2022/09/29 09:03:06;;;;;;;0.95;0.43;;;;;;;;;;5031590;28;20049;-70
2022/09/29 09:06:06;;;;;;;2.47;0.52;;;;;;;;;;5031510;28;20049;-70
2022/09/29 09:08:56;;;;;;;1.23;0.77;;;;;;;;;;5031633;28;20113;-69
2022/09/29 09:12:03;;;;;;;3.85;0.95;;;;;;;;;;5047016;28;20054;-68
2022/09/29 09:14:44;;;;;;;0.95;0.63;;;;;;;;;;5014635;28;20053;-68
2022/09/29 09:17:52;;;;;;;3.28;0.90;;;;;;;;;;5031412;28;20060;-67
2022/09/29 09:20:43;;;;;;;2.65;0.65;;;;;;;;;;4992227;28;20498;-67
2022/09/29 09:23:19;;;;;;;2.03;0.60;;;;;;;;;;4959191;28;20069;-69
2022/09/29 09:25:56;;;;;;;1.83;0.73;;;;;;;;;;4991643;28;20046;-70
2022/09/29 09:28:35;;;;;;;1.63;0.65;;;;;;;;;;4991903;28;20053;-69
2022/09/29 09:31:11;;;;;;;2.33;0.82;;;;;;;;;;4999923;28;20065;-68
2022/09/29 09:34:10;;;;;;;0.88;0.35;;;;;;;;;;5011477;28;20409;-67
2022/09/29 09:36:45;;;;;;;5.57;0.80;;;;;;;;;;5011283;28;20057;-67
2022/09/29 09:39:45;;;;;;;3.42;0.50;;;;;;;;;;5011063;28;20042;-67
2022/09/29 09:42:23;;;;;;;1.30;0.60;;;;;;;;;;5011285;28;20053;-67
2022/09/29 09:45:22;;;;;;;1.95;0.68;;;;;;;;;;5011138;28;20061;-68
2022/09/29 09:48:13;;;;;;;5.03;0.70;;;;;;;;;;5010825;28;20057;-68
2022/09/29 09:50:50;;;;;;;1.48;0.70;;;;;;;;;;5011034;28;20053;-69
2022/09/29 09:53:40;;;;;;;1.90;0.80;;;;;;;;;;5011211;28;20153;-68
2022/09/29 09:56:30;;;;;;;2.00;0.70;;;;;;;;;;4980920;28;20421;-69
2022/09/29 09:59:25;;;;;;;1.52;0.77;;;;;;;;;;5038259;28;20079;-67
2022/09/29 10:01:56;;;;;;;2.13;0.80;;;;;;;;;;5010832;28;20077;-68
2022/09/29 10:04:26;;;;;;;2.42;0.90;;;;;;;;;;5010704;28;20065;-67
2022/09/29 10:06:56;;;;;;;4.30;1.60;;;;;;;;;;5010849;28;20125;-68
2022/09/29 10:09:26;;;;;;;61.40;18.10;;;;;;;;;;4994341;28;20065;-67
2022/09/29 10:11:56;;;;;;;6.38;2.42;;;;;;;;;;4994375;28;20066;-67
2022/09/29 10:14:28;;;;;;;35.17;13.27;;;;;;;;;;5010595;28;20046;-68
2022/09/29 10:17:12;;;;;;;10.27;4.53;;;;;;;;;;5010463;28;20062;-69
2022/09/29 10:19:56;;;;;;;10.05;3.92;;;;;;;;;;5010546;28;20064;-70
2022/09/29 10:22:28;;;;;;;20.52;9.60;;;;;;;;;;5010475;28;20062;-71
2022/09/29 10:25:20;;;;;;;7.63;3.35;;;;;;;;;;5010361;28;20049;-70
2022/09/29 10:27:56;;;;;;;2.78;1.00;;;;;;;;;;5010311;28;20510;-71
2022/09/29 10:30:34;;;;;;;2.38;0.52;;;;;;;;;;4993866;28;20046;-72
2022/09/29 10:33:11;;;;;;;3.53;1.10;;;;;;;;;;5042669;28;20060;-71
2022/09/29 10:35:45;;;;;;;2.40;0.77;;;;;;;;;;5072186;28;20041;-71
2022/09/29 10:38:34;;;;;;;3.58;0.90;;;;;;;;;;5054789;28;20047;-71
2022/09/29 10:41:07;;;;;;;1.83;0.55;;;;;;;;;;5054767;28;20056;-68
2022/09/29 10:43:40;;;;;;;2.55;0.90;;;;;;;;;;5072201;28;20048;-69
2022/09/29 10:46:37;;;;;;;2.10;0.90;;;;;;;;;;5053544;28;20052;-71
2022/09/29 10:49:19;;;;;;;3.05;1.00;;;;;;;;;;5013354;28;20049;-72
2022/09/29 10:51:57;;;;;;;6.85;2.38;;;;;;;;;;5013211;28;20053;-72
2022/09/29 10:54:34;;;;;;;4.55;1.17;;;;;;;;;;5013544;28;20065;-70
2022/09/29 10:57:15;;;;;;;6.43;1.02;;;;;;;;;;5013273;28;20062;-70
2022/09/29 10:59:52;;;;;;;7.90;2.75;;;;;;;;;;5029738;28;20433;-71
2022/09/29 11:02:28;;;;;;;6.55;2.42;;;;;;;;;;5030088;28;20417;-69
2022/09/29 11:05:03;;;;;;;4.13;1.60;;;;;;;;;;5013175;28;20050;-70
2022/09/29 11:07:34;;;;;;;3.22;0.80;;;;;;;;;;5009805;28;20403;-71
2022/09/29 11:10:25;;;;;;;3.35;0.90;;;;;;;;;;5010146;28;20058;-72
2022/09/29 11:12:57;;;;;;;4.45;1.08;;;;;;;;;;4994074;28;20062;-71
2022/09/29 11:15:37;;;;;;;3.22;1.13;;;;;;;;;;4994272;28;20125;-72
2022/09/29 11:18:27;;;;;;;2.80;0.77;;;;;;;;;;5009850;28;20210;-72
2022/09/29 11:21:20;;;;;;;3.17;1.05;;;;;;;;;;5026203;28;20065;-72
2022/09/29 11:24:17;;;;;;;3.65;1.00;;;;;;;;;;4977024;28;20058;-71
2022/09/29 11:27:09;;;;;;;3.10;1.17;;;;;;;;;;5038702;28;20453;-71
2022/09/29 11:29:55;;;;;;;2.80;1.05;;;;;;;;;;5017084;28;20065;-71
2022/09/29 11:32:56;;;;;;;2.83;1.00;;;;;;;;;;5049352;28;20069;-71
2022/09/29 11:35:32;;;;;;;5.28;1.65;;;;;;;;;;5020005;28;20056;-69
2022/09/29 11:38:12;;;;;;;2.83;1.23;;;;;;;;;;5013300;28;20054;-69
2022/09/29 11:41:01;;;;;;;1.60;0.80;;;;;;;;;;5013351;28;20054;-70
2022/09/29 11:43:50;;;;;;;4.25;1.50;;;;;;;;;;5013410;28;20058;-69
2022/09/29 11:46:30;;;;;;;5.20;1.00;;;;;;;;;;4949740;28;20161;-69
2022/09/29 11:49:22;;;;;;;2.53;1.38;;;;;;;;;;5012767;28;20046;-69
2022/09/29 11:52:31;;;;;;;2.20;1.00;;;;;;;;;;5013162;28;20062;-69
2022/09/29 11:55:26;;;;;;;2.10;0.70;;;;;;;;;;5013232;28;20456;-68
2022/09/29 11:58:07;;;;;;;3.90;1.50;;;;;;;;;;5012943;28;20411;-68
2022/09/29 12:01:00;;;;;;;2.15;0.85;;;;;;;;;;4996693;28;20077;-69
2022/09/29 12:03:35;;;;;;;3.75;0.85;;;;;;;;;;4993093;28;20055;-69
2022/09/29 12:06:17;;;;;;;2.22;0.90;;;;;;;;;;5009163;28;20065;-69
2022/09/29 12:09:22;;;;;;;2.92;0.82;;;;;;;;;;5012595;28;20050;-68
2022/09/29 12:12:04;;;;;;;2.17;0.93;;;;;;;;;;5012864;28;20065;-68
2022/09/29 12:15:14;;;;;;;6.13;1.70;;;;;;;;;;5016176;28;20053;-68
2022/09/29 12:17:52;;;;;;;6.90;2.53;;;;;;;;;;4957203;28;20051;-67
2022/09/29 12:20:23;;;;;;;9.18;2.92;;;;;;;;;;4957249;28;20055;-67
2022/09/29 12:22:56;;;;;;;3.78;1.30;;;;;;;;;;4973721;28;20066;-68
2022/09/29 12:25:32;;;;;;;1.58;0.60;;;;;;;;;;4973766;28;20043;-70
2022/09/29 12:28:13;;;;;;;2.22;0.95;;;;;;;;;;4992720;28;20518;-71
2022/09/29 12:30:50;;;;;;;7.10;2.13;;;;;;;;;;4954066;29;20058;-71
2022/09/29 12:33:34;;;;;;;1.35;0.40;;;;;;;;;;4906635;29;20059;-71
2022/09/29 12:36:43;;;;;;;1.17;0.60;;;;;;;;;;4954047;29;20051;-69
2022/09/29 12:39:34;;;;;;;3.45;0.88;;;;;;;;;;4954006;29;20063;-71
2022/09/29 12:42:10;;;;;;;9.80;1.60;;;;;;;;;;4953944;29;20055;-70
2022/09/29 12:44:46;;;;;;;4.38;1.20;;;;;;;;;;4953318;28;20055;-71
2022/09/29 12:47:34;;;;;;;4.65;1.70;;;;;;;;;;4940622;29;20516;-70
2022/09/29 12:50:19;;;;;;;8.98;3.03;;;;;;;;;;4953745;29;20063;-69
2022/09/29 12:53:08;;;;;;;8.80;2.08;;;;;;;;;;4953543;29;20059;-70
2022/09/29 12:55:59;;;;;;;2.38;0.82;;;;;;;;;;4972966;28;20386;-71
2022/09/29 12:58:41;;;;;;;6.43;2.33;;;;;;;;;;5031395;28;20064;-71
2022/09/29 13:01:35;;;;;;;5.13;1.25;;;;;;;;;;5031769;28;20157;-70
2022/09/29 13:04:33;;;;;;;5.88;1.67;;;;;;;;;;5031705;28;20049;-70
2022/09/29 13:07:21;;;;;;;6.25;2.28;;;;;;;;;;5031938;28;20053;-71
2022/09/29 13:10:25;;;;;;;2.75;1.20;;;;;;;;;;5073510;28;20404;-68
2022/09/29 13:13:01;;;;;;;;;;;;;;;;;;5031923;28;20057;-71
2022/09/29 13:15:45;;;;;;;2.85;0.90;;;;;;;;;;5011537;28;19954;-71
2022/09/29 13:18:23;;;;;;;1.92;0.98;;;;;;;;;;5011475;28;20080;-71
2022/09/29 13:21:15;;;;;;;2.13;0.85;;;;;;;;;;5011701;28;20093;-69
2022/09/29 13:24:01;;;;;;;2.20;1.13;;;;;;;;;;5011225;28;20050;-69
2022/09/29 13:26:51;;;;;;;2.78;1.38;;;;;;;;;;5011184;28;20097;-69
2022/09/29 13:29:24;;;;;;;2.28;0.70;;;;;;;;;;5011342;28;20050;-69
2022/09/29 13:31:57;;;;;;;2.00;0.68;;;;;;;;;;5011209;28;20050;-69
2022/09/29 13:34:36;;;;;;;2.58;1.25;;;;;;;;;;5011264;28;20445;-69
2022/09/29 13:37:16;;;;;;;4.18;1.42;;;;;;;;;;5011045;28;20050;-69
2022/09/29 13:39:57;;;;;;;1.45;0.80;;;;;;;;;;4978669;28;20049;-69
2022/09/29 13:42:40;;;;;;;2.40;1.05;;;;;;;;;;5011247;28;20058;-69
2022/09/29 13:45:34;;;;;;;3.28;1.15;;;;;;;;;;4955907;28;20061;-69
2022/09/29 13:48:16;;;;;;;3.72;2.05;;;;;;;;;;4971954;28;20062;-69
2022/09/29 13:50:48;;;;;;;4.65;2.20;;;;;;;;;;5006019;28;20058;-72
2022/09/29 13:53:28;;;;;;;3.58;1.80;;;;;;;;;;5014189;28;20057;-69
2022/09/29 13:56:01;;;;;;;5.55;1.90;;;;;;;;;;5030651;28;20053;-70
2022/09/29 13:58:57;;;;;;;3.00;1.63;;;;;;;;;;4981513;28;20054;-71
2022/09/29 14:01:32;;;;;;;3.90;1.85;;;;;;;;;;5014458;28;20064;-71
2022/09/29 14:04:39;;;;;;;4.80;1.70;;;;;;;;;;5030311;28;20096;-71
2022/09/29 14:07:13;;;;;;;6.15;2.22;;;;;;;;;;5013907;28;20396;-71
2022/09/29 14:09:46;;;;;;;5.07;1.80;;;;;;;;;;5030308;28;20521;-71
2022/09/29 14:12:23;;;;;;;4.07;1.60;;;;;;;;;;4998003;28;20058;-71
2022/09/29 14:14:59;;;;;;;4.80;1.40;;;;;;;;;;4981538;28;20064;-70
2022/09/29 14:17:42;;;;;;;2.88;1.30;;;;;;;;;;5030073;28;20104;-70
2022/09/29 14:20:24;;;;;;;2.45;1.30;;;;;;;;;;5030488;28;20060;-69
2022/09/29 14:22:59;;;;;;;4.28;1.80;;;;;;;;;;5035622;28;20056;-70
2022/09/29 14:25:48;;;;;;;4.30;1.38;;;;;;;;;;5072501;28;20423;-70
2022/09/29 14:28:38;;;;;;;2.63;1.52;;;;;;;;;;5036817;28;20492;-70
2022/09/29 14:31:19;;;;;;;1.20;0.50;;;;;;;;;;5054691;28;20499;-70
2022/09/29 14:33:52;;;;;;;1.50;0.82;;;;;;;;;;5072481;28;20554;-70
2022/09/29 14:36:25;;;;;;;1.42;0.85;;;;;;;;;;5072440;28;20384;-70
2022/09/29 14:38:57;;;;;;;1.40;0.60;;;;;;;;;;5037138;28;20055;-70
2022/09/29 14:41:48;;;;;;;1.45;0.70;;;;;;;;;;5072414;28;20048;-70
2022/09/29 14:44:24;;;;;;;1.83;0.77;;;;;;;;;;5072292;28;20391;-69
2022/09/29 14:53:21;;;;;;;1.73;0.85;;;;;;;;;;5072176;28;20063;-70
2022/09/29 14:56:18;;;;;;;2.15;0.85;;;;;;;;;;5072081;28;20049;-70
2022/09/29 14:59:13;;;;;;;1.58;0.60;;;;;;;;;;5072152;28;20059;-69
2022/09/29 15:02:12;;;;;;;2.53;1.10;;;;;;;;;;5072025;28;20041;-68
2022/09/29 15:04:43;;;;;;;1.38;0.70;;;;;;;;;;5072240;28;20051;-68
2022/09/29 15:07:22;;;;;;;1.42;0.73;;;;;;;;;;5070161;28;20115;-70
2022/09/29 15:09:57;;;;;;;1.73;0.50;;;;;;;;;;5075081;28;20041;-70
2022/09/29 15:12:31;;;;;;;1.25;0.52;;;;;;;;;;5076199;28;20403;-70
2022/09/29 15:15:01;;;;;;;1.00;0.57;;;;;;;;;;5058399;28;20045;-70
2022/09/29 15:17:47;;;;;;;1.40;0.60;;;;;;;;;;5073839;28;20059;-71
2022/09/29 15:20:32;;;;;;;1.13;0.80;;;;;;;;;;5076119;28;20052;-70
2022/09/29 15:23:31;;;;;;;1.75;0.90;;;;;;;;;;5013656;28;20457;-70
2022/09/29 15:26:21;;;;;;;1.13;0.68;;;;;;;;;;4974616;28;20631;-69
2022/09/29 15:28:52;;;;;;;3.45;0.70;;;;;;;;;;4974668;28;20055;-70
2022/09/29 15:31:30;;;;;;;2.00;0.70;;;;;;;;;;4974426;28;20058;-69
2022/09/29 15:34:03;;;;;;;0.80;0.50;;;;;;;;;;4954923;28;20051;-70
2022/09/29 15:36:39;;;;;;;1.02;0.50;;;;;;;;;;4954907;28;20423;-70
2022/09/29 15:39:32;;;;;;;1.70;0.50;;;;;;;;;;4893225;28;20415;-71
2022/09/29 15:42:15;;;;;;;4.30;1.10;;;;;;;;;;4863351;29;20065;-67
2022/09/29 15:44:53;;;;;;;1.55;0.80;;;;;;;;;;4879152;29;20069;-67
2022/09/29 15:47:39;;;;;;;2.63;0.77;;;;;;;;;;4878930;29;20053;-68
2022/09/29 15:50:20;;;;;;;1.52;0.70;;;;;;;;;;4879007;29;20532;-72
2022/09/29 15:52:51;;;;;;;3.10;0.82;;;;;;;;;;4879135;29;20444;-71
2022/09/29 15:55:24;;;;;;;2.40;0.80;;;;;;;;;;4879219;29;20053;-71
2022/09/29 15:57:57;;;;;;;1.92;0.60;;;;;;;;;;4878869;29;20053;-70